sensor_id;sensor_type;location;lat;lon;timestamp;P1;durP1;ratioP1;P2;durP2;ratioP2
18857;SDS011;9558;50.178;8.370;2022-10-22T00:00:58;12.55;;;6.28;;
18857;SDS011;9558;50.178;8.370;2022-10-22T00:03:25;7.45;;;4.90;;
18857;SDS011;9558;50.178;8.370;2022-10-22T00:05:52;10.40;;;5.30;;
18857;SDS011;9558;50.178;8.370;2022-10-22T00:08:18;10.30;;;5.47;;
18857;SDS011;9558;50.178;8.370;2022-10-22T00:10:45;9.30;;;5.45;;
18857;SDS011;9558;50.178;8.370;2022-10-22T00:13:11;8.68;;;4.53;;
18857;SDS011;9558;50.178;8.370;2022-10-22T00:15:38;6.72;;;3.97;;
18857;SDS011;9558;50.178;8.370;2022-10-22T00:18:04;10.20;;;5.28;;
18857;SDS011;9558;50.178;8.370;2022-10-22T00:20:33;9.13;;;4.50;;
18857;SDS011;9558;50.178;8.370;2022-10-22T00:22:59;9.65;;;5.50;;
18857;SDS011;9558;50.178;8.370;2022-10-22T00:25:25;9.48;;;5.05;;
18857;SDS011;9558;50.178;8.370;2022-10-22T00:27:52;8.23;;;4.65;;
18857;SDS011;9558;50.178;8.370;2022-10-22T00:30:18;8.32;;;5.13;;
18857;SDS011;9558;50.178;8.370;2022-10-22T00:32:45;9.95;;;4.70;;
18857;SDS011;9558;50.178;8.370;2022-10-22T00:35:11;14.88;;;5.45;;
18857;SDS011;9558;50.178;8.370;2022-10-22T00:37:39;14.52;;;5.10;;
18857;SDS011;9558;50.178;8.370;2022-10-22T00:40:06;8.20;;;4.32;;
18857;SDS011;9558;50.178;8.370;2022-10-22T00:42:34;4.47;;;3.15;;
18857;SDS011;9558;50.178;8.370;2022-10-22T00:45:14;6.00;;;3.95;;
18857;SDS011;9558;50.178;8.370;2022-10-22T00:47:43;7.88;;;4.40;;
18857;SDS011;9558;50.178;8.370;2022-10-22T00:50:14;7.63;;;4.07;;
18857;SDS011;9558;50.178;8.370;2022-10-22T00:52:45;9.05;;;4.55;;
18857;SDS011;9558;50.178;8.370;2022-10-22T00:55:12;7.47;;;4.60;;
18857;SDS011;9558;50.178;8.370;2022-10-22T00:57:40;7.97;;;3.38;;
18857;SDS011;9558;50.178;8.370;2022-10-22T01:00:08;8.43;;;4.70;;
18857;SDS011;9558;50.178;8.370;2022-10-22T01:02:35;7.78;;;4.75;;
18857;SDS011;9558;50.178;8.370;2022-10-22T01:05:02;10.27;;;5.07;;
18857;SDS011;9558;50.178;8.370;2022-10-22T01:07:29;13.02;;;5.38;;
18857;SDS011;9558;50.178;8.370;2022-10-22T01:10:02;7.47;;;4.60;;
18857;SDS011;9558;50.178;8.370;2022-10-22T01:12:35;9.27;;;4.45;;
18857;SDS011;9558;50.178;8.370;2022-10-22T01:15:11;10.20;;;4.70;;
18857;SDS011;9558;50.178;8.370;2022-10-22T01:17:48;9.45;;;5.47;;
18857;SDS011;9558;50.178;8.370;2022-10-22T01:22:58;8.75;;;5.30;;
18857;SDS011;9558;50.178;8.370;2022-10-22T01:25:33;14.02;;;6.00;;
18857;SDS011;9558;50.178;8.370;2022-10-22T01:28:05;9.40;;;5.03;;
18857;SDS011;9558;50.178;8.370;2022-10-22T01:30:42;8.88;;;5.10;;
18857;SDS011;9558;50.178;8.370;2022-10-22T01:33:11;11.07;;;5.90;;
18857;SDS011;9558;50.178;8.370;2022-10-22T01:35:42;11.55;;;5.47;;
18857;SDS011;9558;50.178;8.370;2022-10-22T01:38:11;12.32;;;6.63;;
18857;SDS011;9558;50.178;8.370;2022-10-22T01:40:41;12.27;;;6.57;;
18857;SDS011;9558;50.178;8.370;2022-10-22T01:43:09;11.02;;;5.93;;
18857;SDS011;9558;50.178;8.370;2022-10-22T01:45:37;13.77;;;6.10;;
18857;SDS011;9558;50.178;8.370;2022-10-22T01:48:11;16.33;;;7.35;;
18857;SDS011;9558;50.178;8.370;2022-10-22T01:53:24;9.77;;;4.95;;
18857;SDS011;9558;50.178;8.370;2022-10-22T01:56:09;11.25;;;5.97;;
18857;SDS011;9558;50.178;8.370;2022-10-22T01:58:51;15.02;;;8.00;;
18857;SDS011;9558;50.178;8.370;2022-10-22T02:01:25;12.50;;;6.70;;
18857;SDS011;9558;50.178;8.370;2022-10-22T02:04:00;12.35;;;6.20;;
18857;SDS011;9558;50.178;8.370;2022-10-22T02:06:31;11.52;;;5.88;;
18857;SDS011;9558;50.178;8.370;2022-10-22T02:08:59;11.07;;;6.25;;
18857;SDS011;9558;50.178;8.370;2022-10-22T02:11:27;9.55;;;5.15;;
18857;SDS011;9558;50.178;8.370;2022-10-22T02:13:55;12.80;;;5.68;;
18857;SDS011;9558;50.178;8.370;2022-10-22T02:16:27;11.80;;;5.47;;
18857;SDS011;9558;50.178;8.370;2022-10-22T02:18:57;10.30;;;5.72;;
18857;SDS011;9558;50.178;8.370;2022-10-22T02:23:57;9.50;;;4.57;;
18857;SDS011;9558;50.178;8.370;2022-10-22T02:26:25;5.03;;;3.28;;
18857;SDS011;9558;50.178;8.370;2022-10-22T02:28:58;4.47;;;2.45;;
18857;SDS011;9558;50.178;8.370;2022-10-22T02:31:31;5.93;;;2.95;;
18857;SDS011;9558;50.178;8.370;2022-10-22T02:34:04;6.95;;;2.53;;
18857;SDS011;9558;50.178;8.370;2022-10-22T02:36:34;3.17;;;1.95;;
18857;SDS011;9558;50.178;8.370;2022-10-22T02:39:02;4.32;;;2.38;;
18857;SDS011;9558;50.178;8.370;2022-10-22T02:41:30;3.33;;;2.13;;
18857;SDS011;9558;50.178;8.370;2022-10-22T02:43:57;5.38;;;2.25;;
18857;SDS011;9558;50.178;8.370;2022-10-22T02:46:23;3.42;;;2.70;;
18857;SDS011;9558;50.178;8.370;2022-10-22T02:48:50;5.65;;;2.70;;
18857;SDS011;9558;50.178;8.370;2022-10-22T02:51:18;3.13;;;2.33;;
18857;SDS011;9558;50.178;8.370;2022-10-22T02:53:45;4.32;;;2.60;;
18857;SDS011;9558;50.178;8.370;2022-10-22T02:56:11;3.38;;;2.38;;
18857;SDS011;9558;50.178;8.370;2022-10-22T02:58:38;7.43;;;3.10;;
18857;SDS011;9558;50.178;8.370;2022-10-22T03:01:04;3.97;;;2.25;;
18857;SDS011;9558;50.178;8.370;2022-10-22T03:03:31;2.95;;;2.30;;
18857;SDS011;9558;50.178;8.370;2022-10-22T03:05:57;3.42;;;2.67;;
18857;SDS011;9558;50.178;8.370;2022-10-22T03:08:25;2.33;;;2.13;;
18857;SDS011;9558;50.178;8.370;2022-10-22T03:10:52;6.05;;;2.58;;
18857;SDS011;9558;50.178;8.370;2022-10-22T03:13:18;3.35;;;2.35;;
18857;SDS011;9558;50.178;8.370;2022-10-22T03:15:46;3.97;;;2.42;;
18857;SDS011;9558;50.178;8.370;2022-10-22T03:18:13;6.25;;;2.95;;
18857;SDS011;9558;50.178;8.370;2022-10-22T03:20:40;5.40;;;2.80;;
18857;SDS011;9558;50.178;8.370;2022-10-22T03:23:06;3.58;;;2.65;;
18857;SDS011;9558;50.178;8.370;2022-10-22T03:25:34;5.57;;;2.63;;
18857;SDS011;9558;50.178;8.370;2022-10-22T03:28:02;4.38;;;2.03;;
18857;SDS011;9558;50.178;8.370;2022-10-22T03:30:30;4.47;;;2.38;;
18857;SDS011;9558;50.178;8.370;2022-10-22T03:32:57;12.15;;;3.05;;
18857;SDS011;9558;50.178;8.370;2022-10-22T03:35:24;2.92;;;1.92;;
18857;SDS011;9558;50.178;8.370;2022-10-22T03:37:50;2.08;;;1.77;;
18857;SDS011;9558;50.178;8.370;2022-10-22T03:40:17;5.60;;;2.22;;
18857;SDS011;9558;50.178;8.370;2022-10-22T03:42:46;2.50;;;1.75;;
18857;SDS011;9558;50.178;8.370;2022-10-22T03:45:12;5.35;;;2.40;;
18857;SDS011;9558;50.178;8.370;2022-10-22T03:47:39;2.92;;;2.20;;
18857;SDS011;9558;50.178;8.370;2022-10-22T03:50:06;5.55;;;2.40;;
18857;SDS011;9558;50.178;8.370;2022-10-22T03:52:34;2.47;;;2.03;;
18857;SDS011;9558;50.178;8.370;2022-10-22T03:55:02;2.55;;;1.95;;
18857;SDS011;9558;50.178;8.370;2022-10-22T03:57:29;3.20;;;2.00;;
18857;SDS011;9558;50.178;8.370;2022-10-22T03:59:57;4.88;;;1.92;;
18857;SDS011;9558;50.178;8.370;2022-10-22T04:02:23;3.38;;;1.70;;
18857;SDS011;9558;50.178;8.370;2022-10-22T04:04:50;4.65;;;1.95;;
18857;SDS011;9558;50.178;8.370;2022-10-22T04:07:16;1.40;;;1.10;;
18857;SDS011;9558;50.178;8.370;2022-10-22T04:09:43;2.80;;;1.70;;
18857;SDS011;9558;50.178;8.370;2022-10-22T04:12:09;2.08;;;1.48;;
18857;SDS011;9558;50.178;8.370;2022-10-22T04:14:36;2.60;;;1.60;;
18857;SDS011;9558;50.178;8.370;2022-10-22T04:17:04;2.90;;;1.75;;
18857;SDS011;9558;50.178;8.370;2022-10-22T04:19:30;2.08;;;1.50;;
18857;SDS011;9558;50.178;8.370;2022-10-22T04:21:57;2.05;;;1.48;;
18857;SDS011;9558;50.178;8.370;2022-10-22T04:24:24;1.83;;;1.52;;
18857;SDS011;9558;50.178;8.370;2022-10-22T04:26:52;2.30;;;1.58;;
18857;SDS011;9558;50.178;8.370;2022-10-22T04:29:19;3.92;;;1.90;;
18857;SDS011;9558;50.178;8.370;2022-10-22T04:31:45;4.63;;;2.05;;
18857;SDS011;9558;50.178;8.370;2022-10-22T04:34:13;3.33;;;1.60;;
18857;SDS011;9558;50.178;8.370;2022-10-22T04:36:40;6.72;;;1.92;;
18857;SDS011;9558;50.178;8.370;2022-10-22T04:39:06;2.30;;;1.67;;
18857;SDS011;9558;50.178;8.370;2022-10-22T04:41:34;1.52;;;1.30;;
18857;SDS011;9558;50.178;8.370;2022-10-22T04:44:01;2.00;;;1.40;;
18857;SDS011;9558;50.178;8.370;2022-10-22T04:46:29;1.30;;;1.17;;
18857;SDS011;9558;50.178;8.370;2022-10-22T04:48:57;3.45;;;1.52;;
18857;SDS011;9558;50.178;8.370;2022-10-22T04:51:25;2.97;;;1.70;;
18857;SDS011;9558;50.178;8.370;2022-10-22T04:53:52;2.55;;;1.63;;
18857;SDS011;9558;50.178;8.370;2022-10-22T04:56:20;3.67;;;1.50;;
18857;SDS011;9558;50.178;8.370;2022-10-22T04:58:49;2.75;;;1.83;;
18857;SDS011;9558;50.178;8.370;2022-10-22T05:01:17;1.77;;;1.45;;
18857;SDS011;9558;50.178;8.370;2022-10-22T05:03:46;1.60;;;1.17;;
18857;SDS011;9558;50.178;8.370;2022-10-22T05:06:13;2.35;;;1.58;;
18857;SDS011;9558;50.178;8.370;2022-10-22T05:11:12;1.92;;;1.42;;
18857;SDS011;9558;50.178;8.370;2022-10-22T05:13:39;3.15;;;1.55;;
18857;SDS011;9558;50.178;8.370;2022-10-22T05:16:06;7.15;;;2.08;;
18857;SDS011;9558;50.178;8.370;2022-10-22T05:18:33;1.80;;;1.23;;
18857;SDS011;9558;50.178;8.370;2022-10-22T05:21:01;3.90;;;1.73;;
18857;SDS011;9558;50.178;8.370;2022-10-22T05:25:56;1.85;;;1.50;;
18857;SDS011;9558;50.178;8.370;2022-10-22T05:28:22;2.55;;;1.38;;
18857;SDS011;9558;50.178;8.370;2022-10-22T05:30:52;2.22;;;1.35;;
18857;SDS011;9558;50.178;8.370;2022-10-22T05:33:19;1.95;;;1.55;;
18857;SDS011;9558;50.178;8.370;2022-10-22T05:35:46;5.25;;;1.58;;
18857;SDS011;9558;50.178;8.370;2022-10-22T05:38:13;2.05;;;1.67;;
18857;SDS011;9558;50.178;8.370;2022-10-22T05:40:39;2.97;;;1.48;;
18857;SDS011;9558;50.178;8.370;2022-10-22T05:43:07;2.88;;;1.42;;
18857;SDS011;9558;50.178;8.370;2022-10-22T05:45:35;3.08;;;1.40;;
18857;SDS011;9558;50.178;8.370;2022-10-22T05:48:01;3.67;;;1.67;;
18857;SDS011;9558;50.178;8.370;2022-10-22T05:50:28;2.53;;;1.70;;
18857;SDS011;9558;50.178;8.370;2022-10-22T05:52:55;2.45;;;1.48;;
18857;SDS011;9558;50.178;8.370;2022-10-22T05:55:21;2.35;;;1.60;;
18857;SDS011;9558;50.178;8.370;2022-10-22T05:57:48;2.85;;;1.77;;
18857;SDS011;9558;50.178;8.370;2022-10-22T06:00:16;2.45;;;1.98;;
18857;SDS011;9558;50.178;8.370;2022-10-22T06:02:42;2.72;;;1.75;;
18857;SDS011;9558;50.178;8.370;2022-10-22T06:05:09;2.33;;;1.92;;
18857;SDS011;9558;50.178;8.370;2022-10-22T06:07:35;1.83;;;1.48;;
18857;SDS011;9558;50.178;8.370;2022-10-22T06:10:02;1.80;;;1.52;;
18857;SDS011;9558;50.178;8.370;2022-10-22T06:12:29;1.85;;;1.60;;
18857;SDS011;9558;50.178;8.370;2022-10-22T06:14:55;3.92;;;2.00;;
18857;SDS011;9558;50.178;8.370;2022-10-22T06:17:23;3.75;;;2.08;;
18857;SDS011;9558;50.178;8.370;2022-10-22T06:19:49;1.15;;;1.05;;
18857;SDS011;9558;50.178;8.370;2022-10-22T06:22:16;2.75;;;2.03;;
18857;SDS011;9558;50.178;8.370;2022-10-22T06:24:42;1.70;;;1.55;;
18857;SDS011;9558;50.178;8.370;2022-10-22T06:27:09;2.22;;;1.23;;
18857;SDS011;9558;50.178;8.370;2022-10-22T06:29:35;2.00;;;1.30;;
18857;SDS011;9558;50.178;8.370;2022-10-22T06:32:02;2.50;;;1.50;;
18857;SDS011;9558;50.178;8.370;2022-10-22T06:34:29;2.88;;;1.70;;
18857;SDS011;9558;50.178;8.370;2022-10-22T06:36:56;1.88;;;1.30;;
18857;SDS011;9558;50.178;8.370;2022-10-22T06:39:23;4.20;;;1.50;;
18857;SDS011;9558;50.178;8.370;2022-10-22T06:41:49;2.15;;;1.40;;
18857;SDS011;9558;50.178;8.370;2022-10-22T06:44:17;2.95;;;1.10;;
18857;SDS011;9558;50.178;8.370;2022-10-22T06:46:44;2.58;;;1.13;;
18857;SDS011;9558;50.178;8.370;2022-10-22T06:49:11;0.80;;;0.77;;
18857;SDS011;9558;50.178;8.370;2022-10-22T06:51:43;1.40;;;0.75;;
18857;SDS011;9558;50.178;8.370;2022-10-22T06:54:09;7.72;;;0.73;;
18857;SDS011;9558;50.178;8.370;2022-10-22T06:56:36;5.82;;;0.85;;
18857;SDS011;9558;50.178;8.370;2022-10-22T06:59:03;0.70;;;0.70;;
18857;SDS011;9558;50.178;8.370;2022-10-22T07:01:31;1.35;;;0.90;;
18857;SDS011;9558;50.178;8.370;2022-10-22T07:03:59;1.13;;;0.80;;
18857;SDS011;9558;50.178;8.370;2022-10-22T07:06:27;9.75;;;1.35;;
18857;SDS011;9558;50.178;8.370;2022-10-22T07:08:55;1.73;;;0.93;;
18857;SDS011;9558;50.178;8.370;2022-10-22T07:11:24;1.05;;;0.52;;
18857;SDS011;9558;50.178;8.370;2022-10-22T07:13:52;2.45;;;0.90;;
18857;SDS011;9558;50.178;8.370;2022-10-22T07:16:20;1.48;;;0.80;;
18857;SDS011;9558;50.178;8.370;2022-10-22T07:18:46;1.17;;;0.80;;
18857;SDS011;9558;50.178;8.370;2022-10-22T07:21:14;5.93;;;0.93;;
18857;SDS011;9558;50.178;8.370;2022-10-22T07:23:42;1.58;;;1.13;;
18857;SDS011;9558;50.178;8.370;2022-10-22T07:26:12;1.35;;;0.80;;
18857;SDS011;9558;50.178;8.370;2022-10-22T07:28:40;4.40;;;0.88;;
18857;SDS011;9558;50.178;8.370;2022-10-22T07:31:07;5.28;;;0.90;;
18857;SDS011;9558;50.178;8.370;2022-10-22T07:33:35;3.42;;;0.98;;
18857;SDS011;9558;50.178;8.370;2022-10-22T07:36:03;1.67;;;0.70;;
18857;SDS011;9558;50.178;8.370;2022-10-22T07:38:31;0.98;;;0.85;;
18857;SDS011;9558;50.178;8.370;2022-10-22T07:40:58;1.92;;;0.82;;
18857;SDS011;9558;50.178;8.370;2022-10-22T07:43:26;0.93;;;0.82;;
18857;SDS011;9558;50.178;8.370;2022-10-22T07:45:52;3.47;;;1.35;;
18857;SDS011;9558;50.178;8.370;2022-10-22T07:48:20;1.58;;;1.20;;
18857;SDS011;9558;50.178;8.370;2022-10-22T07:50:47;5.50;;;0.82;;
18857;SDS011;9558;50.178;8.370;2022-10-22T07:53:14;3.10;;;0.88;;
18857;SDS011;9558;50.178;8.370;2022-10-22T07:55:41;1.85;;;0.82;;
18857;SDS011;9558;50.178;8.370;2022-10-22T07:58:07;1.02;;;0.93;;
18857;SDS011;9558;50.178;8.370;2022-10-22T08:00:35;1.08;;;0.98;;
18857;SDS011;9558;50.178;8.370;2022-10-22T08:03:02;0.70;;;0.70;;
18857;SDS011;9558;50.178;8.370;2022-10-22T08:05:28;2.03;;;1.08;;
18857;SDS011;9558;50.178;8.370;2022-10-22T08:07:55;1.77;;;1.30;;
18857;SDS011;9558;50.178;8.370;2022-10-22T08:10:21;0.80;;;0.75;;
18857;SDS011;9558;50.178;8.370;2022-10-22T08:12:48;2.28;;;1.48;;
18857;SDS011;9558;50.178;8.370;2022-10-22T08:15:14;1.58;;;0.93;;
18857;SDS011;9558;50.178;8.370;2022-10-22T08:17:42;1.30;;;1.05;;
18857;SDS011;9558;50.178;8.370;2022-10-22T08:20:09;0.80;;;0.70;;
18857;SDS011;9558;50.178;8.370;2022-10-22T08:22:36;6.35;;;1.20;;
18857;SDS011;9558;50.178;8.370;2022-10-22T08:25:03;1.40;;;1.10;;
18857;SDS011;9558;50.178;8.370;2022-10-22T08:34:50;1.67;;;1.17;;
18857;SDS011;9558;50.178;8.370;2022-10-22T08:37:16;0.82;;;0.80;;
18857;SDS011;9558;50.178;8.370;2022-10-22T08:39:43;1.65;;;0.73;;
18857;SDS011;9558;50.178;8.370;2022-10-22T08:42:18;5.97;;;1.13;;
18857;SDS011;9558;50.178;8.370;2022-10-22T08:45:10;0.70;;;0.70;;
18857;SDS011;9558;50.178;8.370;2022-10-22T08:47:44;1.65;;;1.30;;
18857;SDS011;9558;50.178;8.370;2022-10-22T08:50:26;0.70;;;0.70;;
18857;SDS011;9558;50.178;8.370;2022-10-22T08:52:58;0.82;;;0.63;;
18857;SDS011;9558;50.178;8.370;2022-10-22T08:55:30;0.70;;;0.70;;
18857;SDS011;9558;50.178;8.370;2022-10-22T08:57:59;1.10;;;0.80;;
18857;SDS011;9558;50.178;8.370;2022-10-22T09:00:34;2.38;;;0.60;;
18857;SDS011;9558;50.178;8.370;2022-10-22T09:03:05;3.35;;;0.85;;
18857;SDS011;9558;50.178;8.370;2022-10-22T09:05:47;2.72;;;0.80;;
18857;SDS011;9558;50.178;8.370;2022-10-22T09:08:21;1.33;;;1.05;;
18857;SDS011;9558;50.178;8.370;2022-10-22T09:10:49;1.27;;;0.82;;
18857;SDS011;9558;50.178;8.370;2022-10-22T09:13:20;0.77;;;0.70;;
18857;SDS011;9558;50.178;8.370;2022-10-22T09:15:50;0.95;;;0.68;;
18857;SDS011;9558;50.178;8.370;2022-10-22T09:18:26;0.40;;;0.40;;
18857;SDS011;9558;50.178;8.370;2022-10-22T09:21:01;1.50;;;0.45;;
18857;SDS011;9558;50.178;8.370;2022-10-22T09:23:36;0.50;;;0.30;;
18857;SDS011;9558;50.178;8.370;2022-10-22T09:26:20;1.02;;;0.40;;
18857;SDS011;9558;50.178;8.370;2022-10-22T09:28:48;0.50;;;0.40;;
18857;SDS011;9558;50.178;8.370;2022-10-22T09:31:15;0.63;;;0.50;;
18857;SDS011;9558;50.178;8.370;2022-10-22T09:33:42;3.20;;;0.60;;
18857;SDS011;9558;50.178;8.370;2022-10-22T09:36:14;0.30;;;0.30;;
18857;SDS011;9558;50.178;8.370;2022-10-22T09:38:45;0.70;;;0.45;;
18857;SDS011;9558;50.178;8.370;2022-10-22T09:41:12;1.35;;;0.50;;
18857;SDS011;9558;50.178;8.370;2022-10-22T09:43:40;0.43;;;0.22;;
18857;SDS011;9558;50.178;8.370;2022-10-22T09:46:07;0.63;;;0.40;;
18857;SDS011;9558;50.178;8.370;2022-10-22T09:48:40;1.17;;;0.77;;
18857;SDS011;9558;50.178;8.370;2022-10-22T09:51:14;0.52;;;0.50;;
18857;SDS011;9558;50.178;8.370;2022-10-22T09:53:45;0.40;;;0.22;;
18857;SDS011;9558;50.178;8.370;2022-10-22T09:56:16;1.67;;;0.50;;
18857;SDS011;9558;50.178;8.370;2022-10-22T09:58:46;5.03;;;0.93;;
18857;SDS011;9558;50.178;8.370;2022-10-22T10:01:17;0.80;;;0.73;;
18857;SDS011;9558;50.178;8.370;2022-10-22T10:03:46;0.75;;;0.35;;
18857;SDS011;9558;50.178;8.370;2022-10-22T10:06:16;0.73;;;0.50;;
18857;SDS011;9558;50.178;8.370;2022-10-22T10:08:43;1.10;;;0.63;;
18857;SDS011;9558;50.178;8.370;2022-10-22T10:11:10;1.08;;;0.40;;
18857;SDS011;9558;50.178;8.370;2022-10-22T10:13:45;1.17;;;0.60;;
18857;SDS011;9558;50.178;8.370;2022-10-22T10:16:20;1.17;;;0.30;;
18857;SDS011;9558;50.178;8.370;2022-10-22T10:18:58;1.08;;;0.60;;
18857;SDS011;9558;50.178;8.370;2022-10-22T10:21:38;2.17;;;0.40;;
18857;SDS011;9558;50.178;8.370;2022-10-22T10:24:15;0.40;;;0.38;;
18857;SDS011;9558;50.178;8.370;2022-10-22T10:26:50;1.00;;;0.50;;
18857;SDS011;9558;50.178;8.370;2022-10-22T10:29:26;3.53;;;0.32;;
18857;SDS011;9558;50.178;8.370;2022-10-22T10:32:14;0.75;;;0.35;;
18857;SDS011;9558;50.178;8.370;2022-10-22T10:34:55;0.73;;;0.43;;
18857;SDS011;9558;50.178;8.370;2022-10-22T10:37:34;5.53;;;0.60;;
18857;SDS011;9558;50.178;8.370;2022-10-22T10:40:12;0.52;;;0.35;;
18857;SDS011;9558;50.178;8.370;2022-10-22T10:42:45;6.35;;;0.43;;
18857;SDS011;9558;50.178;8.370;2022-10-22T10:45:16;3.72;;;0.43;;
18857;SDS011;9558;50.178;8.370;2022-10-22T10:48:00;0.95;;;0.40;;
18857;SDS011;9558;50.178;8.370;2022-10-22T10:50:51;1.23;;;0.60;;
18857;SDS011;9558;50.178;8.370;2022-10-22T10:53:28;0.55;;;0.40;;
18857;SDS011;9558;50.178;8.370;2022-10-22T10:56:08;6.55;;;0.40;;
18857;SDS011;9558;50.178;8.370;2022-10-22T10:58:49;0.10;;;0.10;;
18857;SDS011;9558;50.178;8.370;2022-10-22T11:01:26;0.25;;;0.25;;
18857;SDS011;9558;50.178;8.370;2022-10-22T11:04:04;1.38;;;0.40;;
18857;SDS011;9558;50.178;8.370;2022-10-22T11:06:41;1.20;;;0.20;;
18857;SDS011;9558;50.178;8.370;2022-10-22T11:09:13;0.13;;;0.10;;
18857;SDS011;9558;50.178;8.370;2022-10-22T11:11:49;2.20;;;0.30;;
18857;SDS011;9558;50.178;8.370;2022-10-22T11:14:20;1.27;;;0.30;;
18857;SDS011;9558;50.178;8.370;2022-10-22T11:16:52;3.55;;;0.30;;
18857;SDS011;9558;50.178;8.370;2022-10-22T11:19:26;0.10;;;0.10;;
18857;SDS011;9558;50.178;8.370;2022-10-22T11:22:00;0.60;;;0.20;;
18857;SDS011;9558;50.178;8.370;2022-10-22T11:24:34;0.20;;;0.20;;
18857;SDS011;9558;50.178;8.370;2022-10-22T11:29:36;0.10;;;0.10;;
18857;SDS011;9558;50.178;8.370;2022-10-22T11:32:08;1.73;;;0.25;;
18857;SDS011;9558;50.178;8.370;2022-10-22T11:34:41;0.10;;;0.10;;
18857;SDS011;9558;50.178;8.370;2022-10-22T11:37:10;0.95;;;0.30;;
18857;SDS011;9558;50.178;8.370;2022-10-22T11:39:42;1.75;;;0.30;;
18857;SDS011;9558;50.178;8.370;2022-10-22T11:42:11;1.05;;;0.30;;
18857;SDS011;9558;50.178;8.370;2022-10-22T11:44:48;0.47;;;0.20;;
18857;SDS011;9558;50.178;8.370;2022-10-22T11:47:25;0.10;;;0.10;;
18857;SDS011;9558;50.178;8.370;2022-10-22T11:49:55;5.65;;;0.82;;
18857;SDS011;9558;50.178;8.370;2022-10-22T11:52:25;0.50;;;0.50;;
18857;SDS011;9558;50.178;8.370;2022-10-22T11:55:09;1.55;;;0.43;;
18857;SDS011;9558;50.178;8.370;2022-10-22T11:57:55;0.50;;;0.20;;
18857;SDS011;9558;50.178;8.370;2022-10-22T12:00:39;0.03;;;0.03;;
18857;SDS011;9558;50.178;8.370;2022-10-22T12:03:14;0.20;;;0.20;;
18857;SDS011;9558;50.178;8.370;2022-10-22T12:05:42;1.42;;;0.20;;
18857;SDS011;9558;50.178;8.370;2022-10-22T12:08:19;1.33;;;0.45;;
18857;SDS011;9558;50.178;8.370;2022-10-22T12:10:59;0.70;;;0.20;;
18857;SDS011;9558;50.178;8.370;2022-10-22T12:13:29;2.50;;;0.22;;
18857;SDS011;9558;50.178;8.370;2022-10-22T12:15:58;0.47;;;0.25;;
18857;SDS011;9558;50.178;8.370;2022-10-22T12:18:31;0.38;;;0.30;;
18857;SDS011;9558;50.178;8.370;2022-10-22T12:21:04;0.85;;;0.30;;
18857;SDS011;9558;50.178;8.370;2022-10-22T12:23:32;0.10;;;0.10;;
18857;SDS011;9558;50.178;8.370;2022-10-22T12:26:01;0.93;;;0.15;;
18857;SDS011;9558;50.178;8.370;2022-10-22T12:28:29;0.68;;;0.22;;
18857;SDS011;9558;50.178;8.370;2022-10-22T12:31:03;0.77;;;0.30;;
18857;SDS011;9558;50.178;8.370;2022-10-22T12:33:29;1.75;;;0.52;;
18857;SDS011;9558;50.178;8.370;2022-10-22T12:35:56;1.88;;;0.32;;
18857;SDS011;9558;50.178;8.370;2022-10-22T12:38:28;0.20;;;0.20;;
18857;SDS011;9558;50.178;8.370;2022-10-22T12:40:55;0.65;;;0.10;;
18857;SDS011;9558;50.178;8.370;2022-10-22T12:43:25;0.35;;;0.20;;
18857;SDS011;9558;50.178;8.370;2022-10-22T12:45:53;1.15;;;0.10;;
18857;SDS011;9558;50.178;8.370;2022-10-22T12:48:22;0.22;;;0.10;;
18857;SDS011;9558;50.178;8.370;2022-10-22T12:50:52;1.75;;;0.35;;
18857;SDS011;9558;50.178;8.370;2022-10-22T12:53:21;0.70;;;0.40;;
18857;SDS011;9558;50.178;8.370;2022-10-22T12:55:53;0.68;;;0.22;;
18857;SDS011;9558;50.178;8.370;2022-10-22T12:58:21;0.35;;;0.28;;
18857;SDS011;9558;50.178;8.370;2022-10-22T13:00:54;1.02;;;0.30;;
18857;SDS011;9558;50.178;8.370;2022-10-22T13:03:26;0.60;;;0.30;;
18857;SDS011;9558;50.178;8.370;2022-10-22T13:05:55;2.97;;;0.40;;
18857;SDS011;9558;50.178;8.370;2022-10-22T13:08:22;0.77;;;0.32;;
18857;SDS011;9558;50.178;8.370;2022-10-22T13:10:52;1.10;;;0.28;;
18857;SDS011;9558;50.178;8.370;2022-10-22T13:13:30;1.40;;;0.30;;
18857;SDS011;9558;50.178;8.370;2022-10-22T13:16:14;0.35;;;0.32;;
18857;SDS011;9558;50.178;8.370;2022-10-22T13:18:43;0.70;;;0.15;;
18857;SDS011;9558;50.178;8.370;2022-10-22T13:21:20;0.95;;;0.30;;
18857;SDS011;9558;50.178;8.370;2022-10-22T13:23:59;1.50;;;0.40;;
18857;SDS011;9558;50.178;8.370;2022-10-22T13:26:31;1.20;;;0.15;;
18857;SDS011;9558;50.178;8.370;2022-10-22T13:29:00;1.05;;;0.30;;
18857;SDS011;9558;50.178;8.370;2022-10-22T13:31:29;0.85;;;0.30;;
18857;SDS011;9558;50.178;8.370;2022-10-22T13:33:58;1.65;;;0.20;;
18857;SDS011;9558;50.178;8.370;2022-10-22T13:36:28;1.98;;;0.35;;
18857;SDS011;9558;50.178;8.370;2022-10-22T13:38:54;0.40;;;0.10;;
18857;SDS011;9558;50.178;8.370;2022-10-22T13:41:22;0.32;;;0.32;;
18857;SDS011;9558;50.178;8.370;2022-10-22T13:43:50;0.40;;;0.30;;
18857;SDS011;9558;50.178;8.370;2022-10-22T13:46:19;2.03;;;0.50;;
18857;SDS011;9558;50.178;8.370;2022-10-22T13:48:47;1.88;;;0.70;;
18857;SDS011;9558;50.178;8.370;2022-10-22T13:51:17;0.95;;;0.20;;
18857;SDS011;9558;50.178;8.370;2022-10-22T13:53:45;0.77;;;0.40;;
18857;SDS011;9558;50.178;8.370;2022-10-22T13:56:13;1.73;;;0.65;;
18857;SDS011;9558;50.178;8.370;2022-10-22T13:58:40;0.73;;;0.28;;
18857;SDS011;9558;50.178;8.370;2022-10-22T14:01:10;0.98;;;0.30;;
18857;SDS011;9558;50.178;8.370;2022-10-22T14:03:45;0.65;;;0.28;;
18857;SDS011;9558;50.178;8.370;2022-10-22T14:06:13;0.40;;;0.22;;
18857;SDS011;9558;50.178;8.370;2022-10-22T14:08:41;3.13;;;0.50;;
18857;SDS011;9558;50.178;8.370;2022-10-22T14:11:09;0.20;;;0.20;;
18857;SDS011;9558;50.178;8.370;2022-10-22T14:13:37;0.65;;;0.22;;
18857;SDS011;9558;50.178;8.370;2022-10-22T14:16:04;1.55;;;0.28;;
18857;SDS011;9558;50.178;8.370;2022-10-22T14:18:31;1.17;;;0.50;;
18857;SDS011;9558;50.178;8.370;2022-10-22T14:21:00;3.03;;;0.50;;
18857;SDS011;9558;50.178;8.370;2022-10-22T14:23:31;0.63;;;0.30;;
18857;SDS011;9558;50.178;8.370;2022-10-22T14:25:59;1.02;;;0.47;;
18857;SDS011;9558;50.178;8.370;2022-10-22T14:28:26;3.33;;;0.50;;
18857;SDS011;9558;50.178;8.370;2022-10-22T14:30:53;0.40;;;0.32;;
18857;SDS011;9558;50.178;8.370;2022-10-22T14:33:21;0.10;;;0.10;;
18857;SDS011;9558;50.178;8.370;2022-10-22T14:35:50;1.60;;;0.20;;
18857;SDS011;9558;50.178;8.370;2022-10-22T14:38:18;0.30;;;0.30;;
18857;SDS011;9558;50.178;8.370;2022-10-22T14:40:44;1.77;;;0.20;;
18857;SDS011;9558;50.178;8.370;2022-10-22T14:43:13;0.90;;;0.30;;
18857;SDS011;9558;50.178;8.370;2022-10-22T14:45:45;0.45;;;0.30;;
18857;SDS011;9558;50.178;8.370;2022-10-22T14:48:11;1.27;;;0.30;;
18857;SDS011;9558;50.178;8.370;2022-10-22T14:50:38;1.75;;;0.30;;
18857;SDS011;9558;50.178;8.370;2022-10-22T14:53:04;4.35;;;0.38;;
18857;SDS011;9558;50.178;8.370;2022-10-22T14:55:32;2.13;;;0.30;;
18857;SDS011;9558;50.178;8.370;2022-10-22T14:57:58;0.52;;;0.30;;
18857;SDS011;9558;50.178;8.370;2022-10-22T15:00:25;0.65;;;0.30;;
18857;SDS011;9558;50.178;8.370;2022-10-22T15:05:19;0.35;;;0.10;;
18857;SDS011;9558;50.178;8.370;2022-10-22T15:07:47;1.85;;;0.32;;
18857;SDS011;9558;50.178;8.370;2022-10-22T15:10:13;0.20;;;0.15;;
18857;SDS011;9558;50.178;8.370;2022-10-22T15:12:41;2.80;;;0.47;;
18857;SDS011;9558;50.178;8.370;2022-10-22T15:15:08;0.63;;;0.22;;
18857;SDS011;9558;50.178;8.370;2022-10-22T15:17:35;5.85;;;0.75;;
18857;SDS011;9558;50.178;8.370;2022-10-22T15:20:01;1.55;;;0.60;;
18857;SDS011;9558;50.178;8.370;2022-10-22T15:22:29;3.80;;;0.40;;
18857;SDS011;9558;50.178;8.370;2022-10-22T15:24:59;0.60;;;0.45;;
18857;SDS011;9558;50.178;8.370;2022-10-22T15:27:25;7.57;;;0.60;;
18857;SDS011;9558;50.178;8.370;2022-10-22T15:29:53;5.72;;;0.57;;
18857;SDS011;9558;50.178;8.370;2022-10-22T15:32:22;4.72;;;0.52;;
18857;SDS011;9558;50.178;8.370;2022-10-22T15:34:50;3.92;;;1.17;;
18857;SDS011;9558;50.178;8.370;2022-10-22T15:37:17;4.72;;;0.47;;
18857;SDS011;9558;50.178;8.370;2022-10-22T15:39:44;1.25;;;0.50;;